createdAt,value
2022-10-13T00:00:35.069Z,98341.94
2022-10-13T00:03:05.425Z,98341.94
2022-10-13T00:05:35.784Z,98344.06
2022-10-13T00:08:06.106Z,98340.25
2022-10-13T00:10:49.541Z,98343.66
2022-10-13T00:13:24.850Z,98348.66
2022-10-13T00:15:58.191Z,98348.59
2022-10-13T00:18:31.391Z,98341.00
2022-10-13T00:21:01.739Z,98348.09
2022-10-13T00:23:31.973Z,98346.38
2022-10-13T00:26:07.692Z,98344.47
2022-10-13T00:28:38.928Z,98349.06
2022-10-13T00:31:19.605Z,98345.03
2022-10-13T00:33:50.157Z,98342.84
2022-10-13T00:36:22.271Z,98339.88
2022-10-13T00:38:52.547Z,98341.03
2022-10-13T00:41:25.536Z,98344.56
2022-10-13T00:44:01.361Z,98347.06
2022-10-13T00:46:34.364Z,98338.81
2022-10-13T00:49:08.306Z,98345.25
2022-10-13T00:51:43.937Z,98338.91
2022-10-13T00:54:21.499Z,98350.72
2022-10-13T00:56:55.538Z,98344.97
2022-10-13T00:59:30.674Z,98338.91
2022-10-13T01:02:03.559Z,98340.75
2022-10-13T01:04:45.085Z,98340.75
2022-10-13T01:07:18.178Z,98338.63
2022-10-13T01:09:50.629Z,98337.28
2022-10-13T01:12:39.147Z,98324.41
2022-10-13T01:15:16.483Z,98333.53
2022-10-13T01:17:59.231Z,98323.75
2022-10-13T01:21:02.333Z,98324.72
2022-10-13T01:24:21.752Z,98324.81
2022-10-13T01:27:29.269Z,98327.13
2022-10-13T01:30:15.665Z,98327.59
2022-10-13T01:33:04.141Z,98327.41
2022-10-13T01:35:59.984Z,98333.72
2022-10-13T01:38:39.321Z,98328.38
2022-10-13T01:41:17.690Z,98322.97
2022-10-13T01:43:53.225Z,98318.84
2022-10-13T01:46:31.085Z,98322.00
2022-10-13T01:49:14.873Z,98322.22
2022-10-13T01:51:46.210Z,98317.97
2022-10-13T01:54:16.646Z,98315.09
2022-10-13T01:56:57.629Z,98314.72
2022-10-13T01:59:30.720Z,98309.63
2022-10-13T02:02:15.162Z,98319.72
2022-10-13T02:04:56.741Z,98317.81
2022-10-13T02:07:36.167Z,98313.66
2022-10-13T02:10:16.571Z,98315.03
2022-10-13T02:12:54.761Z,98315.66
2022-10-13T02:15:29.076Z,98313.88
2022-10-13T02:18:07.940Z,98316.06
2022-10-13T02:20:39.451Z,98316.94
2022-10-13T02:23:20.830Z,98320.66
2022-10-13T02:25:52.915Z,98312.53
2022-10-13T02:28:23.605Z,98319.78
2022-10-13T02:30:54.365Z,98318.56
2022-10-13T02:33:27.209Z,98315.47
2022-10-13T02:35:57.487Z,98313.00
2022-10-13T02:38:27.732Z,98317.78
2022-10-13T02:40:58.186Z,98306.97
2022-10-13T02:43:30.372Z,98308.78
2022-10-13T02:46:00.638Z,98304.94
2022-10-13T02:48:33.559Z,98303.22
2022-10-13T02:51:05.492Z,98303.59
2022-10-13T02:53:35.880Z,98297.72
2022-10-13T02:56:07.168Z,98292.66
2022-10-13T02:58:40.563Z,98289.22
2022-10-13T03:01:12.929Z,98293.34
2022-10-13T03:03:46.366Z,98290.94
2022-10-13T03:06:16.691Z,98282.59
2022-10-13T03:08:46.948Z,98274.25
2022-10-13T03:11:17.090Z,98269.63
2022-10-13T03:13:47.185Z,98274.63
2022-10-13T03:16:17.277Z,98271.84
2022-10-13T03:18:50.065Z,98280.38
2022-10-13T03:21:20.407Z,98273.09
2022-10-13T03:23:50.653Z,98272.63
2022-10-13T03:26:22.447Z,98271.53
2022-10-13T03:28:53.255Z,98272.13
2022-10-13T03:31:23.474Z,98270.59
2022-10-13T03:33:56.487Z,98270.78
2022-10-13T03:36:26.721Z,98265.41
2022-10-13T03:38:57.009Z,98265.13
2022-10-13T03:41:27.460Z,98263.56
2022-10-13T03:43:58.199Z,98271.16
2022-10-13T03:46:32.210Z,98263.19
2022-10-13T03:49:05.070Z,98272.22
2022-10-13T03:51:35.623Z,98266.47
2022-10-13T03:54:05.781Z,98262.16
2022-10-13T03:56:36.048Z,98264.94
2022-10-13T03:59:07.384Z,98266.16
2022-10-13T04:01:37.614Z,98263.38
2022-10-13T04:04:12.047Z,98256.59
2022-10-13T04:06:45.864Z,98261.06
2022-10-13T04:09:15.772Z,98260.34
2022-10-13T04:11:45.943Z,98259.56
2022-10-13T04:14:15.986Z,98247.75
2022-10-13T04:16:46.286Z,98253.03
2022-10-13T04:19:19.383Z,98253.50
2022-10-13T04:21:49.583Z,98263.47
2022-10-13T04:24:20.017Z,98252.19
2022-10-13T04:26:50.206Z,98260.78
2022-10-13T04:29:20.346Z,98256.22
2022-10-13T04:31:55.629Z,98259.94
2022-10-13T04:34:28.525Z,98258.59
2022-10-13T04:36:59.605Z,98251.22
2022-10-13T04:39:29.798Z,98256.97
2022-10-13T04:42:00.294Z,98253.78
2022-10-13T04:44:30.652Z,98243.34
2022-10-13T04:47:01.559Z,98250.03
2022-10-13T04:49:34.238Z,98236.69
2022-10-13T04:52:04.403Z,98242.94
2022-10-13T04:54:34.527Z,98239.56
2022-10-13T04:57:04.745Z,98241.47
2022-10-13T04:59:34.815Z,98238.97
2022-10-13T05:02:05.954Z,98233.19
2022-10-13T05:04:39.013Z,98234.47
2022-10-13T05:07:18.357Z,98234.97
2022-10-13T05:09:49.019Z,98229.50
2022-10-13T05:12:19.545Z,98226.84
2022-10-13T05:14:49.880Z,98237.31
2022-10-13T05:17:20.221Z,98227.84
2022-10-13T05:19:53.214Z,98221.16
2022-10-13T05:22:23.503Z,98225.50
2022-10-13T05:24:53.669Z,98224.06
2022-10-13T05:27:23.754Z,98222.94
2022-10-13T05:29:53.897Z,98222.38
2022-10-13T05:32:24.020Z,98223.41
2022-10-13T05:34:56.727Z,98219.88
2022-10-13T05:37:26.936Z,98224.00
2022-10-13T05:39:57.001Z,98221.31
2022-10-13T05:42:27.162Z,98225.47
2022-10-13T05:44:57.414Z,98216.63
2022-10-13T05:47:28.457Z,98220.69
2022-10-13T05:50:02.078Z,98223.34
2022-10-13T05:52:34.998Z,98217.03
2022-10-13T05:55:08.971Z,98214.13
2022-10-13T05:57:42.178Z,98217.38
2022-10-13T06:00:15.318Z,98216.16
2022-10-13T06:02:53.897Z,98224.00
2022-10-13T06:05:29.531Z,98224.66
2022-10-13T06:07:59.798Z,98226.78
2022-10-13T06:10:30.388Z,98224.28
2022-10-13T06:13:00.540Z,98231.19
2022-10-13T06:15:30.711Z,98226.25
2022-10-13T06:18:01.691Z,98233.53
2022-10-13T06:20:34.414Z,98234.22
2022-10-13T06:23:04.839Z,98234.13
2022-10-13T06:25:36.401Z,98227.59
2022-10-13T06:28:06.929Z,98244.06
2022-10-13T06:30:37.100Z,98235.44
2022-10-13T06:33:07.414Z,98242.25
2022-10-13T06:35:40.557Z,98246.56
2022-10-13T06:38:13.995Z,98247.63
2022-10-13T06:40:45.486Z,98250.91
2022-10-13T06:43:15.681Z,98245.06
2022-10-13T06:45:45.986Z,98253.31
2022-10-13T06:48:16.103Z,98252.63
2022-10-13T06:50:48.835Z,98250.44
2022-10-13T06:53:19.025Z,98251.03
2022-10-13T06:55:52.495Z,98255.13
2022-10-13T06:58:22.895Z,98257.78
2022-10-13T07:00:53.048Z,98263.81
2022-10-13T07:03:24.154Z,98261.31
2022-10-13T07:05:56.810Z,98258.41
2022-10-13T07:08:27.000Z,98260.66
2022-10-13T07:10:57.803Z,98263.31
2022-10-13T07:13:30.396Z,98261.50
2022-10-13T07:16:05.825Z,98261.50
2022-10-13T07:18:36.451Z,98262.63
2022-10-13T07:21:09.558Z,98263.25
2022-10-13T07:23:39.789Z,98260.03
2022-10-13T07:26:11.587Z,98257.03
2022-10-13T07:28:42.763Z,98262.75
2022-10-13T07:31:14.469Z,98245.31
2022-10-13T07:33:47.141Z,98240.59
2022-10-13T07:36:22.985Z,98239.72
2022-10-13T07:38:55.005Z,98228.91
2022-10-13T07:41:25.268Z,98232.44
2022-10-13T07:44:00.027Z,98226.31
2022-10-13T07:46:30.433Z,98221.28
2022-10-13T07:49:00.834Z,98227.47
2022-10-13T07:51:33.778Z,98229.41
2022-10-13T07:54:04.093Z,98221.28
2022-10-13T07:56:36.799Z,98227.38
2022-10-13T07:59:08.437Z,98209.06
2022-10-13T08:01:41.172Z,98207.91
2022-10-13T08:04:11.573Z,98203.53
2022-10-13T08:06:44.894Z,98201.22
2022-10-13T08:09:15.369Z,98200.25
2022-10-13T08:11:45.681Z,98200.25
2022-10-13T08:14:16.930Z,98185.13
2022-10-13T08:16:50.094Z,98194.91
2022-10-13T08:19:23.527Z,98191.81
2022-10-13T08:21:59.119Z,98188.03
2022-10-13T08:24:31.037Z,98174.91
2022-10-13T08:27:01.321Z,98186.03
2022-10-13T08:29:31.634Z,98177.06
2022-10-13T08:32:02.022Z,98172.22
2022-10-13T08:34:34.121Z,98171.97
2022-10-13T08:37:08.564Z,98168.78
2022-10-13T08:39:38.952Z,98163.63
2022-10-13T08:42:19.139Z,98171.06
2022-10-13T08:45:39.306Z,98163.88
2022-10-13T08:47:50.652Z,98161.06
2022-10-13T08:50:25.619Z,98164.91
2022-10-13T08:53:02.462Z,98165.41
2022-10-13T08:55:38.964Z,98156.00
2022-10-13T08:58:17.709Z,98150.47
2022-10-13T09:00:48.262Z,98156.66
2022-10-13T09:03:26.738Z,98158.59
2022-10-13T09:06:16.638Z,98154.81
2022-10-13T09:08:56.871Z,98156.63
2022-10-13T09:11:30.900Z,98160.78
2022-10-13T09:14:03.820Z,98158.94
2022-10-13T09:16:40.916Z,98163.88
2022-10-13T09:19:27.532Z,98159.38
2022-10-13T09:22:00.196Z,98160.50
2022-10-13T09:24:33.020Z,98156.03
2022-10-13T09:27:10.328Z,98155.94
2022-10-13T09:29:43.248Z,98161.84
2022-10-13T09:32:19.997Z,98158.59
2022-10-13T09:34:52.991Z,98159.22
2022-10-13T09:37:26.156Z,98166.09
2022-10-13T09:40:22.736Z,98160.56
2022-10-13T09:42:55.374Z,98158.84
2022-10-13T09:45:28.126Z,98163.13
2022-10-13T09:48:02.416Z,98158.19
2022-10-13T09:50:34.746Z,98148.69
2022-10-13T09:53:21.115Z,98143.09
2022-10-13T09:56:11.130Z,98137.28
2022-10-13T09:58:49.031Z,98140.16
2022-10-13T10:01:29.385Z,98147.72
2022-10-13T10:04:01.070Z,98148.72
2022-10-13T10:06:31.986Z,98151.59
2022-10-13T10:09:08.464Z,98151.22
2022-10-13T10:11:45.379Z,98140.69
2022-10-13T10:14:22.745Z,98140.47
2022-10-13T10:17:02.524Z,98140.38
2022-10-13T10:19:47.885Z,98137.88
2022-10-13T10:22:29.794Z,98135.16
2022-10-13T10:25:17.413Z,98130.75
2022-10-13T10:28:19.732Z,98117.56
2022-10-13T10:31:03.035Z,98120.16
2022-10-13T10:33:49.600Z,98120.88
2022-10-13T10:36:26.932Z,98117.84
2022-10-13T10:39:03.858Z,98104.63
2022-10-13T10:41:47.926Z,98105.31
2022-10-13T10:44:24.294Z,98094.03
2022-10-13T10:46:58.141Z,98091.00
2022-10-13T10:49:34.406Z,98079.00
2022-10-13T10:52:10.885Z,98088.19
2022-10-13T10:54:59.082Z,98096.78
2022-10-13T10:57:50.074Z,98092.31
2022-10-13T11:00:25.005Z,98093.75
2022-10-13T11:03:07.097Z,98101.97
2022-10-13T11:06:03.154Z,98088.09
2022-10-13T11:08:43.085Z,98097.94
2022-10-13T11:11:40.108Z,98085.16
2022-10-13T11:14:33.410Z,98081.88
2022-10-13T11:17:23.070Z,98085.94
2022-10-13T11:19:53.628Z,98086.28
2022-10-13T11:22:27.584Z,98085.09
2022-10-13T11:25:11.740Z,98078.94
2022-10-13T11:27:45.824Z,98073.84
2022-10-13T11:30:47.642Z,98069.69
2022-10-13T11:33:55.214Z,98066.34
2022-10-13T11:36:58.706Z,98067.50
2022-10-13T11:40:06.911Z,98071.56
2022-10-13T11:43:08.252Z,98066.34
2022-10-13T11:46:07.408Z,98064.19
2022-10-13T11:49:31.547Z,98063.31
2022-10-13T11:52:39.111Z,98063.81
2022-10-13T11:55:15.822Z,98054.41
2022-10-13T11:57:46.044Z,98053.28
2022-10-13T12:00:20.601Z,98053.44
2022-10-13T12:02:53.403Z,98050.84
2022-10-13T12:05:30.036Z,98050.75
2022-10-13T12:08:06.767Z,98043.09
2022-10-13T12:10:40.805Z,98047.09
2022-10-13T12:13:25.078Z,98050.06
2022-10-13T12:16:03.585Z,98047.81
2022-10-13T12:18:36.768Z,98053.94
2022-10-13T12:21:15.366Z,98053.97
2022-10-13T12:23:46.572Z,98059.44
2022-10-13T12:26:21.032Z,98048.56
2022-10-13T12:28:56.364Z,98046.81
2022-10-13T12:31:29.282Z,98057.03
2022-10-13T12:34:01.717Z,98044.59
2022-10-13T12:36:37.318Z,98041.50
2022-10-13T12:39:15.377Z,98042.34
2022-10-13T12:41:49.004Z,98044.13
2022-10-13T12:44:25.119Z,98043.88
2022-10-13T12:46:59.894Z,98036.53
2022-10-13T12:49:32.413Z,98046.16
2022-10-13T12:52:14.364Z,98041.56
2022-10-13T12:54:54.185Z,98036.13
2022-10-13T12:57:35.362Z,98039.09
2022-10-13T13:00:07.194Z,98036.53
2022-10-13T13:02:37.628Z,98030.66
2022-10-13T13:05:36.285Z,98031.38
2022-10-13T13:08:25.965Z,98020.50
2022-10-13T13:11:00.738Z,98015.28
2022-10-13T13:13:31.657Z,98023.97
2022-10-13T13:16:18.182Z,98001.59
2022-10-13T13:18:49.483Z,97991.66
2022-10-13T13:21:22.974Z,97999.56
2022-10-13T13:23:55.807Z,97999.38
2022-10-13T13:26:28.250Z,98000.91
2022-10-13T13:28:59.413Z,98005.31
2022-10-13T13:31:29.632Z,97998.84
2022-10-13T13:33:59.815Z,98002.75
2022-10-13T13:36:30.034Z,98002.53
2022-10-13T13:39:02.876Z,98001.81
2022-10-13T13:41:33.111Z,97999.28
2022-10-13T13:44:03.384Z,97999.50
2022-10-13T13:46:35.341Z,98003.00
2022-10-13T13:49:06.492Z,98000.78
2022-10-13T13:51:36.733Z,98000.59
2022-10-13T13:54:09.629Z,98003.69
2022-10-13T13:56:40.131Z,98002.00
2022-10-13T13:59:10.313Z,97994.25
2022-10-13T14:01:40.493Z,97995.41
2022-10-13T14:04:10.699Z,97997.09
2022-10-13T14:06:40.830Z,97995.38
2022-10-13T14:09:13.634Z,97994.25
2022-10-13T14:11:43.707Z,97995.97
2022-10-13T14:14:13.919Z,97989.28
2022-10-13T14:16:44.398Z,97984.84
2022-10-13T14:19:14.551Z,97988.41
2022-10-13T14:21:46.050Z,97971.34
2022-10-13T14:24:24.188Z,97971.34
2022-10-13T14:26:54.475Z,97966.28
2022-10-13T14:29:24.972Z,97969.31
2022-10-13T14:31:55.331Z,97969.59
2022-10-13T14:34:25.814Z,97962.81
2022-10-13T14:36:56.009Z,97968.72
2022-10-13T14:39:28.961Z,97956.75
2022-10-13T14:41:59.142Z,97955.22
2022-10-13T14:44:29.331Z,97953.41
2022-10-13T14:46:59.491Z,97950.84
2022-10-13T14:49:30.426Z,97956.44
2022-10-13T14:52:00.627Z,97946.59
2022-10-13T14:54:33.807Z,97947.69
2022-10-13T14:57:05.859Z,97943.38
2022-10-13T14:59:36.179Z,97947.94
2022-10-13T15:02:06.325Z,97947.66
2022-10-13T15:04:36.507Z,97944.09
2022-10-13T15:07:06.801Z,97941.38
2022-10-13T15:09:53.128Z,97947.75
2022-10-13T15:12:31.680Z,97945.91
2022-10-13T15:15:01.554Z,97941.34
2022-10-13T15:17:33.407Z,97950.72
2022-10-13T15:20:04.031Z,97950.22
2022-10-13T15:22:34.854Z,97955.06
2022-10-13T15:25:10.387Z,97956.66
2022-10-13T15:27:42.109Z,97945.19
2022-10-13T15:30:13.821Z,97947.47
2022-10-13T15:32:43.991Z,97948.47
2022-10-13T15:35:14.199Z,97946.94
2022-10-13T15:37:44.906Z,97943.84
2022-10-13T15:40:18.093Z,97937.47
2022-10-13T15:42:48.316Z,97946.44
2022-10-13T15:45:18.584Z,97944.63
2022-10-13T15:47:48.768Z,97946.94
2022-10-13T15:50:19.194Z,97946.47
2022-10-13T15:52:49.429Z,97941.34
2022-10-13T15:55:22.561Z,97937.81
2022-10-13T15:57:53.599Z,97939.88
2022-10-13T16:00:24.140Z,97941.91
2022-10-13T16:02:54.929Z,97950.03
2022-10-13T16:05:25.144Z,97946.00
2022-10-13T16:07:55.420Z,97940.16
2022-10-13T16:10:28.456Z,97942.44
2022-10-13T16:12:58.634Z,97943.72
2022-10-13T16:15:29.350Z,97946.25
2022-10-13T16:17:59.548Z,97944.50
2022-10-13T16:20:34.261Z,97947.03
2022-10-13T16:23:05.015Z,97945.28
2022-10-13T16:25:41.838Z,97943.97
2022-10-13T16:28:12.016Z,97954.38
2022-10-13T16:30:42.215Z,97955.41
2022-10-13T16:33:12.361Z,97947.81
2022-10-13T16:35:42.537Z,97953.13
2022-10-13T16:38:13.398Z,97958.44
2022-10-13T16:40:45.968Z,97967.34
2022-10-13T16:43:16.215Z,97967.84
2022-10-13T16:46:00.401Z,97973.91
2022-10-13T16:48:31.839Z,97968.06
2022-10-13T16:51:02.471Z,97969.34
2022-10-13T16:53:33.084Z,97969.34
2022-10-13T16:56:07.682Z,97976.94
2022-10-13T16:58:43.485Z,97975.41
2022-10-13T17:01:15.130Z,97980.78
2022-10-13T17:03:47.657Z,97979.50
2022-10-13T17:06:18.611Z,97979.50
2022-10-13T17:08:50.768Z,97981.31
2022-10-13T17:11:26.267Z,97981.03
2022-10-13T17:13:58.839Z,97983.34
2022-10-13T17:16:33.513Z,97979.50
2022-10-13T17:19:04.903Z,97979.75
2022-10-13T17:21:39.754Z,97988.63
2022-10-13T17:24:11.917Z,97988.34
2022-10-13T17:26:44.760Z,97994.50
2022-10-13T17:29:14.896Z,97991.19
2022-10-13T17:31:45.074Z,97993.22
2022-10-13T17:34:15.337Z,97993.94
2022-10-13T17:36:45.561Z,97992.16
2022-10-13T17:39:17.747Z,97992.16
2022-10-13T17:41:50.595Z,97996.72
2022-10-13T17:44:21.269Z,97993.69
2022-10-13T17:46:51.781Z,97983.50
2022-10-13T17:49:21.987Z,97985.25
2022-10-13T17:51:55.254Z,97987.31
2022-10-13T17:54:25.585Z,97989.34
2022-10-13T17:56:58.716Z,97986.06
2022-10-13T17:59:29.004Z,97979.44
2022-10-13T18:01:59.257Z,97971.56
2022-10-13T18:04:30.116Z,97972.59
2022-10-13T18:07:00.015Z,97976.41
2022-10-13T18:09:30.653Z,97964.97
2022-10-13T18:12:03.377Z,97959.88
2022-10-13T18:14:33.582Z,97962.88
2022-10-13T18:17:03.815Z,97959.84
2022-10-13T18:19:39.270Z,97962.88
2022-10-13T18:22:10.405Z,97960.34
2022-10-13T18:24:40.605Z,97959.28
2022-10-13T18:27:13.533Z,97963.31
2022-10-13T18:29:44.726Z,97965.34
2022-10-13T18:32:14.921Z,97959.50
2022-10-13T18:34:45.056Z,97961.53
2022-10-13T18:37:15.466Z,97948.84
2022-10-13T18:39:47.811Z,97957.25
2022-10-13T18:42:20.636Z,97957.50
2022-10-13T18:44:50.874Z,97951.91
2022-10-13T18:47:21.308Z,97941.53
2022-10-13T18:49:51.768Z,97942.78
2022-10-13T18:52:22.179Z,97926.28
2022-10-13T18:54:52.869Z,97925.72
2022-10-13T18:57:26.121Z,97925.72
2022-10-13T18:59:56.375Z,97929.75
2022-10-13T19:02:32.381Z,97936.66
2022-10-13T19:05:02.656Z,97936.38
2022-10-13T19:07:35.701Z,97936.88
2022-10-13T19:10:10.898Z,97933.09
2022-10-13T19:12:44.186Z,97942.44
2022-10-13T19:15:14.460Z,97944.44
2022-10-13T19:17:44.846Z,97939.59
2022-10-13T19:20:15.340Z,97939.31
2022-10-13T19:22:45.581Z,97942.13
2022-10-13T19:25:18.944Z,97945.66
2022-10-13T19:27:51.774Z,97957.28
2022-10-13T19:30:22.331Z,97945.91
2022-10-13T19:32:57.272Z,97950.19
2022-10-13T19:35:27.599Z,97948.38
2022-10-13T19:37:57.814Z,97943.06
2022-10-13T19:40:29.309Z,97946.88
2022-10-13T19:43:02.436Z,97942.59
2022-10-13T19:45:32.611Z,97939.53
2022-10-13T19:48:02.980Z,97951.69
2022-10-13T19:50:36.872Z,97946.09
2022-10-13T19:53:07.117Z,97950.94
2022-10-13T19:55:41.554Z,97942.06
2022-10-13T19:58:16.041Z,97945.91
2022-10-13T20:00:47.100Z,97947.19
2022-10-13T20:03:17.765Z,97953.28
2022-10-13T20:05:49.117Z,97956.59
2022-10-13T20:08:19.393Z,97950.25
2022-10-13T20:10:49.609Z,97951.25
2022-10-13T20:13:22.490Z,97957.34
2022-10-13T20:15:54.628Z,97949.78
2022-10-13T20:18:24.765Z,97951.56
2022-10-13T20:20:54.828Z,97963.47
2022-10-13T20:23:24.910Z,97958.16
2022-10-13T20:25:55.004Z,97954.06
2022-10-13T20:28:28.285Z,97954.28
2022-10-13T20:30:58.627Z,97952.75
2022-10-13T20:33:28.883Z,97944.66
2022-10-13T20:36:02.343Z,97949.72
2022-10-13T20:38:33.782Z,97952.50
2022-10-13T20:41:08.438Z,97948.72
2022-10-13T20:43:41.207Z,97942.09
2022-10-13T20:46:12.107Z,97944.88
2022-10-13T20:49:10.828Z,97946.66
2022-10-13T20:51:33.492Z,97942.31
2022-10-13T20:54:03.844Z,97947.38
2022-10-13T20:56:33.996Z,97942.81
2022-10-13T20:59:10.479Z,97948.38
2022-10-13T21:01:41.168Z,97941.28
2022-10-13T21:04:11.428Z,97940.53
2022-10-13T21:06:42.039Z,97941.78
2022-10-13T21:09:12.894Z,97937.16
2022-10-13T21:11:45.299Z,97940.94
2022-10-13T21:14:18.118Z,97933.88
2022-10-13T21:16:48.265Z,97934.13
2022-10-13T21:19:18.495Z,97930.31
2022-10-13T21:21:48.821Z,97921.41
2022-10-13T21:24:18.904Z,97916.53
2022-10-13T21:26:49.085Z,97914.47
2022-10-13T21:29:21.883Z,97915.53
2022-10-13T21:31:52.563Z,97912.50
2022-10-13T21:34:22.685Z,97910.75
2022-10-13T21:36:52.913Z,97904.47
2022-10-13T21:39:22.952Z,97915.41
2022-10-13T21:41:53.083Z,97916.72
2022-10-13T21:44:27.655Z,97920.97
2022-10-13T21:46:57.754Z,97906.25
2022-10-13T21:49:27.968Z,97916.94
2022-10-13T21:51:58.059Z,97911.59
2022-10-13T21:54:28.194Z,97914.63
2022-10-13T21:56:58.368Z,97914.63
2022-10-13T21:59:31.424Z,97907.97
2022-10-13T22:02:01.636Z,97917.31
2022-10-13T22:04:31.821Z,97916.31
2022-10-13T22:07:02.070Z,97907.78
2022-10-13T22:09:32.752Z,97915.66
2022-10-13T22:12:05.765Z,97910.06
2022-10-13T22:14:38.606Z,97919.97
2022-10-13T22:17:09.425Z,97912.09
2022-10-13T22:19:39.615Z,97911.09
2022-10-13T22:22:09.731Z,97911.25
2022-10-13T22:24:39.849Z,97916.38
2022-10-13T22:27:10.002Z,97913.03
2022-10-13T22:29:42.826Z,97917.16
2022-10-13T22:32:13.004Z,97921.47
2022-10-13T22:34:43.377Z,97921.22
2022-10-13T22:37:13.567Z,97915.13
2022-10-13T22:39:43.628Z,97915.13
2022-10-13T22:42:13.762Z,97915.03
2022-10-13T22:44:49.511Z,97921.59
2022-10-13T22:47:19.986Z,97916.75
2022-10-13T22:49:50.502Z,97917.56
2022-10-13T22:52:20.675Z,97912.06
2022-10-13T22:54:50.811Z,97915.91
2022-10-13T22:57:21.554Z,97908.97
2022-10-13T22:59:55.767Z,97907.97
2022-10-13T23:02:26.030Z,97906.91
2022-10-13T23:04:56.180Z,97904.59
2022-10-13T23:07:26.418Z,97907.56
2022-10-13T23:09:56.612Z,97908.53
2022-10-13T23:12:26.832Z,97898.63
2022-10-13T23:14:59.609Z,97899.31
2022-10-13T23:17:29.745Z,97897.59
2022-10-13T23:19:59.822Z,97905.94
2022-10-13T23:22:29.951Z,97902.88
2022-10-13T23:25:00.193Z,97905.13
2022-10-13T23:27:31.211Z,97899.53
2022-10-13T23:30:03.713Z,97893.13
2022-10-13T23:32:33.967Z,97891.56
2022-10-13T23:35:04.155Z,97883.00
2022-10-13T23:37:35.746Z,97880.16
2022-10-13T23:40:06.268Z,97883.41
2022-10-13T23:42:36.456Z,97882.81
2022-10-13T23:45:10.664Z,97892.59
2022-10-13T23:47:40.860Z,97885.19
2022-10-13T23:50:12.405Z,97885.69
2022-10-13T23:52:42.599Z,97890.00
2022-10-13T23:55:12.975Z,97879.59
2022-10-13T23:57:43.132Z,97892.50
